Time;durP1;ratioP1;P1;durP2;ratioP2;P2;SDS_P1;SDS_P2;PMS_P1;PMS_P2;Temp;Humidity;BMP_temperature;BMP_pressure;BME280_temperature;BME280_humidity;BME280_pressure;Samples;Min_cycle;Max_cycle;Signal;HPM_P1;HPM_P2
2024/01/03 00:02:20;;;;;;;172.88;97.20;;;;;;;;;;5008097;28;20083;-86
2024/01/03 00:04:46;;;;;;;199.27;105.03;;;;;;;;;;5025943;28;20018;-86
2024/01/03 00:07:11;;;;;;;189.88;101.05;;;;;;;;;;5023592;28;20021;-86
2024/01/03 00:09:37;;;;;;;154.88;88.55;;;;;;;;;;5013898;28;20096;-86
2024/01/03 00:12:03;;;;;;;132.57;78.40;;;;;;;;;;5006999;28;20021;-87
2024/01/03 00:14:31;;;;;;;301.17;114.75;;;;;;;;;;5026469;28;20029;-86
2024/01/03 00:17:00;;;;;;;138.18;68.95;;;;;;;;;;5010134;28;20021;-86
2024/01/03 00:19:26;;;;;;;544.88;150.90;;;;;;;;;;5021956;28;20487;-86
2024/01/03 00:21:51;;;;;;;106.47;59.80;;;;;;;;;;5024075;28;20025;-86
2024/01/03 00:24:17;;;;;;;84.00;49.03;;;;;;;;;;5024184;28;20028;-86
2024/01/03 00:26:42;;;;;;;180.45;60.03;;;;;;;;;;5008214;28;20014;-86
2024/01/03 00:29:34;;;;;;;171.32;72.07;;;;;;;;;;5025212;28;20809;-87
2024/01/03 00:32:00;;;;;;;94.63;55.88;;;;;;;;;;5009962;28;20496;-87
2024/01/03 00:34:39;;;;;;;109.10;64.30;;;;;;;;;;5025978;28;20533;-86
2024/01/03 00:37:14;;;;;;;107.95;62.47;;;;;;;;;;5005582;28;20661;-87
2024/01/03 00:39:39;;;;;;;138.25;80.05;;;;;;;;;;5011519;28;20029;-87
2024/01/03 00:42:05;;;;;;;122.53;54.58;;;;;;;;;;5026518;28;20530;-86
2024/01/03 00:44:31;;;;;;;78.30;50.60;;;;;;;;;;5026544;28;20029;-86
2024/01/03 00:46:57;;;;;;;76.32;49.72;;;;;;;;;;5028248;28;20013;-86
2024/01/03 00:49:23;;;;;;;79.20;48.58;;;;;;;;;;5026159;28;20017;-86
2024/01/03 00:51:49;;;;;;;252.90;110.20;;;;;;;;;;5010312;28;20029;-86
2024/01/03 00:54:16;;;;;;;225.10;99.80;;;;;;;;;;5010559;28;20534;-86
2024/01/03 00:56:41;;;;;;;208.32;73.68;;;;;;;;;;5026954;28;20029;-87
2024/01/03 00:59:07;;;;;;;172.23;71.78;;;;;;;;;;5027586;28;20043;-87
2024/01/03 01:01:32;;;;;;;198.23;89.03;;;;;;;;;;5026353;28;20128;-86
2024/01/03 01:03:57;;;;;;;285.00;101.50;;;;;;;;;;5008745;28;20129;-86
2024/01/03 01:06:23;;;;;;;213.30;83.30;;;;;;;;;;5026892;28;20014;-87
2024/01/03 01:08:49;;;;;;;294.23;107.38;;;;;;;;;;5010150;28;20048;-86
2024/01/03 01:11:14;;;;;;;164.70;67.25;;;;;;;;;;5014555;28;20092;-87
2024/01/03 01:13:40;;;;;;;177.65;67.53;;;;;;;;;;5027581;28;20329;-86
2024/01/03 01:16:05;;;;;;;131.55;65.88;;;;;;;;;;5009077;28;20037;-86
2024/01/03 01:18:30;;;;;;;76.53;44.20;;;;;;;;;;5026012;28;20086;-87
2024/01/03 01:20:56;;;;;;;89.35;51.58;;;;;;;;;;5009145;28;20033;-86
2024/01/03 01:23:21;;;;;;;462.15;147.90;;;;;;;;;;5027273;28;20018;-87
2024/01/03 01:25:46;;;;;;;217.18;83.53;;;;;;;;;;5026318;28;20010;-87
2024/01/03 01:28:12;;;;;;;231.30;78.60;;;;;;;;;;5009691;28;20044;-87
2024/01/03 01:30:37;;;;;;;154.35;72.38;;;;;;;;;;5012475;28;20026;-87
2024/01/03 01:33:02;;;;;;;119.78;54.45;;;;;;;;;;5027000;28;20025;-87
2024/01/03 01:35:28;;;;;;;152.98;64.45;;;;;;;;;;5027587;28;20035;-87
2024/01/03 01:37:53;;;;;;;130.65;55.97;;;;;;;;;;5023803;28;20192;-87
2024/01/03 01:40:18;;;;;;;101.63;48.65;;;;;;;;;;5029844;28;20518;-86
2024/01/03 01:42:44;;;;;;;85.55;42.50;;;;;;;;;;5024520;28;20017;-87
2024/01/03 01:45:09;;;;;;;65.82;34.55;;;;;;;;;;5027197;28;20537;-86
2024/01/03 01:47:35;;;;;;;108.20;47.45;;;;;;;;;;5006094;28;20021;-86
2024/01/03 01:50:01;;;;;;;85.72;34.75;;;;;;;;;;5026743;28;20120;-87
2024/01/03 01:52:26;;;;;;;71.53;35.33;;;;;;;;;;5006707;28;20487;-86
2024/01/03 01:54:52;;;;;;;79.75;33.65;;;;;;;;;;5008621;28;20418;-87
2024/01/03 01:57:18;;;;;;;61.22;29.17;;;;;;;;;;5003876;28;20124;-87
2024/01/03 01:59:44;;;;;;;86.30;35.92;;;;;;;;;;5015873;28;20021;-87
2024/01/03 02:02:10;;;;;;;80.97;32.00;;;;;;;;;;5006500;28;20017;-86
2024/01/03 02:04:36;;;;;;;53.03;30.10;;;;;;;;;;5021586;28;20060;-86
2024/01/03 02:07:02;;;;;;;258.33;91.93;;;;;;;;;;5007220;28;20052;-88
2024/01/03 02:09:27;;;;;;;66.28;30.88;;;;;;;;;;5005460;28;20021;-87
2024/01/03 02:11:53;;;;;;;58.05;29.73;;;;;;;;;;5009133;28;20079;-87
2024/01/03 02:14:18;;;;;;;49.08;26.75;;;;;;;;;;5005076;28;20052;-87
2024/01/03 02:16:43;;;;;;;48.15;25.52;;;;;;;;;;5011084;28;20030;-88
2024/01/03 02:19:09;;;;;;;59.17;27.88;;;;;;;;;;5025633;28;20029;-87
2024/01/03 02:21:34;;;;;;;45.20;25.50;;;;;;;;;;5013673;28;20036;-88
2024/01/03 02:23:59;;;;;;;69.38;34.03;;;;;;;;;;5010329;28;20017;-87
2024/01/03 02:26:24;;;;;;;43.97;24.10;;;;;;;;;;5010003;28;20017;-87
2024/01/03 02:28:50;;;;;;;41.28;22.85;;;;;;;;;;5010648;28;20025;-87
2024/01/03 02:31:15;;;;;;;43.63;25.42;;;;;;;;;;4993530;28;20025;-87
2024/01/03 02:33:41;;;;;;;43.30;21.65;;;;;;;;;;5028618;28;20048;-87
2024/01/03 02:36:06;;;;;;;43.08;22.67;;;;;;;;;;5026957;28;20509;-86
2024/01/03 02:38:31;;;;;;;56.25;30.88;;;;;;;;;;5032196;28;20037;-87
2024/01/03 02:40:57;;;;;;;52.13;28.95;;;;;;;;;;5014341;28;20040;-88
2024/01/03 02:43:23;;;;;;;45.92;24.48;;;;;;;;;;5035253;28;20025;-87
2024/01/03 02:45:49;;;;;;;70.90;33.20;;;;;;;;;;5031429;28;20028;-87
2024/01/03 02:48:15;;;;;;;39.47;24.60;;;;;;;;;;5014638;28;20060;-87
2024/01/03 02:50:44;;;;;;;70.88;42.35;;;;;;;;;;5012690;28;20112;-87
2024/01/03 02:53:09;;;;;;;59.55;33.08;;;;;;;;;;5010762;28;20032;-87
2024/01/03 02:55:35;;;;;;;36.58;22.75;;;;;;;;;;5029816;28;20120;-86
2024/01/03 02:58:00;;;;;;;42.58;23.73;;;;;;;;;;5024938;28;20110;-87
2024/01/03 03:00:25;;;;;;;39.78;23.60;;;;;;;;;;5009742;28;20052;-87
2024/01/03 03:02:50;;;;;;;61.10;31.92;;;;;;;;;;5008497;28;20013;-87
2024/01/03 03:05:16;;;;;;;46.28;25.40;;;;;;;;;;5027897;28;20022;-87
2024/01/03 03:07:41;;;;;;;49.58;25.70;;;;;;;;;;5008506;28;20098;-87
2024/01/03 03:10:10;;;;;;;44.58;24.50;;;;;;;;;;5026675;28;20583;-88
2024/01/03 03:12:35;;;;;;;40.30;22.33;;;;;;;;;;5011403;28;20026;-87
2024/01/03 03:15:01;;;;;;;37.15;21.00;;;;;;;;;;5011367;28;20028;-87
2024/01/03 03:17:27;;;;;;;35.97;20.63;;;;;;;;;;5031183;28;20033;-87
2024/01/03 03:19:53;;;;;;;81.65;34.60;;;;;;;;;;5028613;28;20558;-87
2024/01/03 03:22:18;;;;;;;31.02;17.23;;;;;;;;;;5030004;28;20067;-87
2024/01/03 03:24:43;;;;;;;32.53;16.98;;;;;;;;;;5031019;28;20021;-87
2024/01/03 03:27:09;;;;;;;37.30;20.80;;;;;;;;;;5016913;28;20014;-87
2024/01/03 03:29:34;;;;;;;42.85;23.38;;;;;;;;;;5028878;28;20515;-88
2024/01/03 03:31:59;;;;;;;44.90;25.42;;;;;;;;;;5028910;28;20025;-87
2024/01/03 03:34:24;;;;;;;57.53;31.38;;;;;;;;;;5012844;28;20029;-88
2024/01/03 03:36:50;;;;;;;53.05;26.95;;;;;;;;;;5016555;28;20515;-88
2024/01/03 03:39:15;;;;;;;54.60;27.40;;;;;;;;;;5012317;28;20508;-88
2024/01/03 03:41:40;;;;;;;60.70;32.60;;;;;;;;;;5012629;28;20542;-88
2024/01/03 03:44:06;;;;;;;40.95;22.40;;;;;;;;;;5030396;28;20160;-87
2024/01/03 03:46:31;;;;;;;42.88;23.42;;;;;;;;;;5011969;28;20055;-88
2024/01/03 03:48:56;;;;;;;33.83;19.65;;;;;;;;;;5016594;28;20030;-87
2024/01/03 03:51:22;;;;;;;43.45;24.55;;;;;;;;;;5015950;28;20582;-88
2024/01/03 03:53:48;;;;;;;52.22;29.15;;;;;;;;;;5016614;28;20025;-87
2024/01/03 03:56:29;;;;;;;35.67;19.10;;;;;;;;;;5016383;28;20033;-88
2024/01/03 03:58:55;;;;;;;30.80;16.45;;;;;;;;;;5002756;28;20021;-87
2024/01/03 04:01:20;;;;;;;36.97;20.50;;;;;;;;;;5030889;28;20033;-87
2024/01/03 04:03:45;;;;;;;61.65;37.75;;;;;;;;;;5029453;28;20483;-87
2024/01/03 04:06:12;;;;;;;35.88;21.55;;;;;;;;;;5012544;28;20028;-87
2024/01/03 04:08:40;;;;;;;28.88;16.25;;;;;;;;;;5013120;28;20494;-88
2024/01/03 04:11:05;;;;;;;52.45;25.63;;;;;;;;;;5032333;28;20013;-87
2024/01/03 04:13:30;;;;;;;22.58;12.68;;;;;;;;;;5014163;28;20116;-88
2024/01/03 04:15:56;;;;;;;20.40;11.23;;;;;;;;;;5030867;28;20181;-86
2024/01/03 04:18:21;;;;;;;29.05;18.50;;;;;;;;;;5029305;28;20037;-88
2024/01/03 04:20:46;;;;;;;17.63;9.35;;;;;;;;;;4991112;28;20533;-89
2024/01/03 04:23:12;;;;;;;13.90;7.75;;;;;;;;;;4983233;28;20041;-86
2024/01/03 04:25:37;;;;;;;29.52;14.18;;;;;;;;;;4973926;28;20038;-87
2024/01/03 04:28:04;;;;;;;19.00;9.65;;;;;;;;;;4973002;28;20611;-87
2024/01/03 04:30:29;;;;;;;17.75;8.40;;;;;;;;;;4972270;28;20034;-88
2024/01/03 04:32:54;;;;;;;15.70;8.07;;;;;;;;;;4975025;28;20034;-87
2024/01/03 04:35:19;;;;;;;11.05;6.00;;;;;;;;;;4986039;28;20041;-86
2024/01/03 04:37:45;;;;;;;6.25;4.25;;;;;;;;;;4984575;28;20050;-87
2024/01/03 04:40:10;;;;;;;7.65;4.90;;;;;;;;;;4965119;28;20808;-87
2024/01/03 04:42:36;;;;;;;8.82;5.80;;;;;;;;;;4993057;28;20097;-87
2024/01/03 04:45:03;;;;;;;28.23;16.75;;;;;;;;;;4980343;28;20025;-88
2024/01/03 04:47:28;;;;;;;15.10;8.40;;;;;;;;;;4965424;28;20069;-87
2024/01/03 04:49:54;;;;;;;12.55;8.82;;;;;;;;;;4969829;28;20060;-87
2024/01/03 04:52:19;;;;;;;15.10;8.70;;;;;;;;;;4986485;28;20034;-87
2024/01/03 04:54:44;;;;;;;12.20;7.30;;;;;;;;;;4984945;28;20052;-87
2024/01/03 04:57:10;;;;;;;13.48;8.30;;;;;;;;;;4986955;28;20028;-87
2024/01/03 04:59:35;;;;;;;17.55;9.13;;;;;;;;;;5001955;28;20014;-87
2024/01/03 05:02:00;;;;;;;16.77;9.15;;;;;;;;;;4986458;28;20026;-87
2024/01/03 05:04:26;;;;;;;14.93;9.10;;;;;;;;;;4989491;28;20060;-87
2024/01/03 05:06:51;;;;;;;20.23;10.93;;;;;;;;;;5001541;28;20022;-88
2024/01/03 05:09:16;;;;;;;16.95;10.48;;;;;;;;;;5001508;28;20036;-87
2024/01/03 05:11:42;;;;;;;15.55;10.32;;;;;;;;;;5000424;28;20030;-87
2024/01/03 05:14:07;;;;;;;30.23;15.75;;;;;;;;;;4987725;28;20190;-87
2024/01/03 05:16:32;;;;;;;65.20;24.90;;;;;;;;;;5001840;28;20045;-86
2024/01/03 05:18:58;;;;;;;76.95;26.00;;;;;;;;;;5000284;28;20021;-86
2024/01/03 05:21:23;;;;;;;50.50;19.33;;;;;;;;;;5002272;28;20716;-87
2024/01/03 05:23:48;;;;;;;40.45;19.65;;;;;;;;;;4984767;28;20028;-86
2024/01/03 05:26:14;;;;;;;20.67;11.98;;;;;;;;;;5006074;28;20075;-87
2024/01/03 05:28:39;;;;;;;59.33;39.30;;;;;;;;;;4985840;28;20340;-88
2024/01/03 05:31:05;;;;;;;30.27;20.63;;;;;;;;;;4985118;28;20026;-86
2024/01/03 05:33:30;;;;;;;59.33;30.60;;;;;;;;;;5002602;28;20184;-87
2024/01/03 05:35:55;;;;;;;73.20;35.55;;;;;;;;;;5004176;28;20101;-87
2024/01/03 05:38:21;;;;;;;57.20;35.72;;;;;;;;;;5020517;28;20057;-87
2024/01/03 05:40:47;;;;;;;32.03;18.25;;;;;;;;;;5003823;28;20017;-87
2024/01/03 05:43:12;;;;;;;30.48;19.30;;;;;;;;;;5021800;28;20029;-86
2024/01/03 05:45:38;;;;;;;27.65;18.30;;;;;;;;;;5022045;28;20037;-87
2024/01/03 05:48:03;;;;;;;26.35;18.98;;;;;;;;;;5021488;28;20021;-87
2024/01/03 05:50:29;;;;;;;27.55;19.65;;;;;;;;;;5003109;28;20021;-87
2024/01/03 05:52:54;;;;;;;28.25;18.92;;;;;;;;;;5021069;28;20029;-87
2024/01/03 05:55:19;;;;;;;17.05;12.88;;;;;;;;;;5006433;28;20475;-87
2024/01/03 05:57:45;;;;;;;22.85;14.98;;;;;;;;;;5022199;28;20025;-87
2024/01/03 06:00:10;;;;;;;17.60;10.23;;;;;;;;;;5020946;28;20657;-87
2024/01/03 06:02:36;;;;;;;22.70;13.75;;;;;;;;;;4999822;28;20610;-87
2024/01/03 06:05:01;;;;;;;16.67;8.48;;;;;;;;;;5003372;28;20018;-88
2024/01/03 06:07:26;;;;;;;38.38;21.33;;;;;;;;;;5003851;28;20020;-87
2024/01/03 06:09:52;;;;;;;36.88;19.45;;;;;;;;;;5004257;28;20025;-87
2024/01/03 06:12:17;;;;;;;22.15;12.43;;;;;;;;;;5006827;28;20068;-87
2024/01/03 06:14:42;;;;;;;16.15;9.38;;;;;;;;;;5019918;28;20014;-88
2024/01/03 06:17:08;;;;;;;139.23;55.33;;;;;;;;;;5022799;28;20032;-87
2024/01/03 06:19:33;;;;;;;67.03;26.85;;;;;;;;;;5003005;28;20545;-87
2024/01/03 06:21:58;;;;;;;52.10;30.63;;;;;;;;;;5020033;28;20017;-87
2024/01/03 06:24:23;;;;;;;38.40;28.30;;;;;;;;;;5021290;28;20025;-88
2024/01/03 06:26:49;;;;;;;204.85;87.25;;;;;;;;;;5005748;28;20021;-87
2024/01/03 06:29:15;;;;;;;250.85;113.97;;;;;;;;;;5021832;28;20041;-87
2024/01/03 06:31:40;;;;;;;154.32;85.07;;;;;;;;;;5006912;28;20483;-87
2024/01/03 06:34:06;;;;;;;289.63;151.65;;;;;;;;;;5004648;28;20030;-87
2024/01/03 06:36:31;;;;;;;240.43;144.52;;;;;;;;;;5020718;28;20556;-87
2024/01/03 06:38:57;;;;;;;57.38;40.95;;;;;;;;;;5004626;28;20025;-88
2024/01/03 06:41:22;;;;;;;68.25;40.22;;;;;;;;;;5003674;28;20717;-87
2024/01/03 06:43:47;;;;;;;261.08;132.20;;;;;;;;;;5006777;28;20592;-87
2024/01/03 06:46:13;;;;;;;44.63;28.05;;;;;;;;;;5005073;28;20483;-87
2024/01/03 06:48:38;;;;;;;45.72;26.48;;;;;;;;;;5016325;28;20598;-89
2024/01/03 06:51:04;;;;;;;40.80;25.10;;;;;;;;;;5032684;28;20027;-89
2024/01/03 06:53:30;;;;;;;78.95;49.15;;;;;;;;;;5014772;28;20067;-90
2024/01/03 06:55:55;;;;;;;57.47;35.65;;;;;;;;;;5014518;28;20025;-87
2024/01/03 06:58:21;;;;;;;57.63;37.28;;;;;;;;;;5032918;28;20033;-88
2024/01/03 07:00:46;;;;;;;103.18;73.25;;;;;;;;;;5033016;28;20067;-89
2024/01/03 07:03:12;;;;;;;60.95;43.13;;;;;;;;;;5032910;28;20366;-88
2024/01/03 07:05:37;;;;;;;51.55;31.77;;;;;;;;;;5015147;28;20022;-89
2024/01/03 07:08:02;;;;;;;60.42;39.67;;;;;;;;;;5012674;28;20108;-88
2024/01/03 07:10:31;;;;;;;90.70;57.53;;;;;;;;;;5032463;28;20114;-88
2024/01/03 07:12:57;;;;;;;69.32;43.00;;;;;;;;;;5033235;28;20021;-88
2024/01/03 07:15:22;;;;;;;77.45;47.47;;;;;;;;;;5015699;28;20387;-88
2024/01/03 07:17:48;;;;;;;52.40;35.28;;;;;;;;;;5030901;28;20021;-88
2024/01/03 07:20:13;;;;;;;107.55;73.03;;;;;;;;;;5031187;28;20026;-88
2024/01/03 07:22:39;;;;;;;39.38;25.67;;;;;;;;;;5013896;28;20017;-87
2024/01/03 07:25:04;;;;;;;75.30;55.85;;;;;;;;;;5032772;28;20368;-88
2024/01/03 07:27:30;;;;;;;39.70;25.60;;;;;;;;;;5014578;28;20166;-88
2024/01/03 07:29:56;;;;;;;53.13;40.13;;;;;;;;;;5010477;28;20407;-88
2024/01/03 07:32:21;;;;;;;71.38;59.70;;;;;;;;;;5034030;28;20028;-88
2024/01/03 07:34:47;;;;;;;41.85;24.02;;;;;;;;;;5033764;28;20435;-87
2024/01/03 07:37:12;;;;;;;40.03;23.92;;;;;;;;;;5010210;28;20081;-88
2024/01/03 07:39:37;;;;;;;34.00;21.63;;;;;;;;;;5015052;28;20087;-88
2024/01/03 07:42:06;;;;;;;187.13;134.07;;;;;;;;;;5014850;28;20071;-88
2024/01/03 07:44:35;;;;;;;26.17;18.77;;;;;;;;;;5032640;28;20017;-88
2024/01/03 07:47:00;;;;;;;131.15;92.25;;;;;;;;;;5017899;28;20553;-88
2024/01/03 07:49:26;;;;;;;22.52;16.55;;;;;;;;;;5030358;28;20025;-88
2024/01/03 07:51:51;;;;;;;32.00;21.70;;;;;;;;;;5016831;28;20385;-88
2024/01/03 07:54:17;;;;;;;30.70;20.48;;;;;;;;;;5031859;28;20025;-88
2024/01/03 07:56:42;;;;;;;47.70;31.58;;;;;;;;;;5013747;28;20041;-88
2024/01/03 07:59:07;;;;;;;131.90;94.57;;;;;;;;;;5026544;28;20029;-88
2024/01/03 08:01:33;;;;;;;39.47;23.92;;;;;;;;;;5030491;28;20045;-87
2024/01/03 08:03:59;;;;;;;61.85;40.10;;;;;;;;;;5028138;28;20021;-87
2024/01/03 08:06:24;;;;;;;63.10;41.88;;;;;;;;;;5012304;28;20034;-88
2024/01/03 08:08:49;;;;;;;55.60;39.10;;;;;;;;;;5026957;28;20550;-88
2024/01/03 08:11:15;;;;;;;51.83;33.42;;;;;;;;;;5029057;28;20026;-86
2024/01/03 08:13:40;;;;;;;54.10;36.60;;;;;;;;;;5011183;28;20140;-89
2024/01/03 08:16:10;;;;;;;63.38;38.25;;;;;;;;;;5017792;28;20029;-89
2024/01/03 08:18:36;;;;;;;60.28;41.47;;;;;;;;;;5012959;28;20021;-89
2024/01/03 08:21:01;;;;;;;46.22;30.08;;;;;;;;;;5028494;28;20095;-88
2024/01/03 08:23:26;;;;;;;37.92;26.02;;;;;;;;;;5028672;28;20395;-88
2024/01/03 08:25:52;;;;;;;76.07;23.35;;;;;;;;;;5029592;28;20488;-89
2024/01/03 08:28:17;;;;;;;41.50;32.92;;;;;;;;;;5014136;28;20034;-87
2024/01/03 08:30:42;;;;;;;167.95;94.75;;;;;;;;;;5011794;28;20334;-87
2024/01/03 08:33:08;;;;;;;50.28;31.27;;;;;;;;;;5030235;28;20065;-88
2024/01/03 08:35:33;;;;;;;99.65;56.05;;;;;;;;;;5029272;28;20026;-88
2024/01/03 08:37:58;;;;;;;51.80;31.33;;;;;;;;;;5010608;28;20072;-88
2024/01/03 08:40:24;;;;;;;72.95;43.85;;;;;;;;;;5013404;28;20030;-88
2024/01/03 08:42:49;;;;;;;34.72;21.02;;;;;;;;;;5028257;28;20009;-89
2024/01/03 08:45:14;;;;;;;43.33;27.15;;;;;;;;;;5011467;28;20395;-87
2024/01/03 08:47:40;;;;;;;45.90;28.40;;;;;;;;;;5025073;28;20064;-87
2024/01/03 08:50:05;;;;;;;68.57;32.38;;;;;;;;;;5009759;28;20480;-87
2024/01/03 08:52:31;;;;;;;26.48;15.05;;;;;;;;;;5025539;28;20021;-87
2024/01/03 08:54:57;;;;;;;68.28;49.40;;;;;;;;;;5029404;28;20471;-87
2024/01/03 08:57:23;;;;;;;77.05;42.63;;;;;;;;;;5014693;28;20029;-87
2024/01/03 08:59:48;;;;;;;107.50;64.93;;;;;;;;;;5001963;28;20116;-87
2024/01/03 09:02:13;;;;;;;66.90;39.45;;;;;;;;;;5013965;28;20052;-87
2024/01/03 09:04:40;;;;;;;42.28;24.88;;;;;;;;;;5015199;28;20083;-87
2024/01/03 09:07:06;;;;;;;47.25;25.50;;;;;;;;;;5029160;28;20013;-86
2024/01/03 09:09:34;;;;;;;21.27;13.48;;;;;;;;;;5014287;28;20036;-87
2024/01/03 09:11:59;;;;;;;26.83;21.20;;;;;;;;;;5032982;28;20069;-87
2024/01/03 09:14:24;;;;;;;28.67;19.23;;;;;;;;;;5013980;28;20025;-87
2024/01/03 09:16:50;;;;;;;51.92;36.45;;;;;;;;;;5028105;28;20022;-88
2024/01/03 09:19:16;;;;;;;15.05;9.45;;;;;;;;;;5014894;28;20367;-87
2024/01/03 09:21:45;;;;;;;20.90;14.38;;;;;;;;;;5032873;28;20036;-86
2024/01/03 09:24:11;;;;;;;14.52;10.38;;;;;;;;;;5032865;28;20049;-86
2024/01/03 09:26:36;;;;;;;11.13;8.98;;;;;;;;;;5032099;28;20072;-88
2024/01/03 09:29:01;;;;;;;14.10;11.65;;;;;;;;;;5007476;28;20049;-87
2024/01/03 09:31:26;;;;;;;10.25;5.22;;;;;;;;;;5006297;28;20399;-87
2024/01/03 09:33:52;;;;;;;6.20;4.35;;;;;;;;;;5006700;28;20037;-88
2024/01/03 09:36:20;;;;;;;35.83;27.85;;;;;;;;;;4993659;28;20424;-91
2024/01/03 09:38:46;;;;;;;38.72;28.80;;;;;;;;;;4991731;28;20127;-90
2024/01/03 09:41:12;;;;;;;22.58;16.20;;;;;;;;;;5009663;28;20026;-93
2024/01/03 09:43:41;;;;;;;35.80;26.77;;;;;;;;;;4985080;28;20060;-86
2024/01/03 09:46:06;;;;;;;30.55;21.88;;;;;;;;;;5007225;28;20025;-86
2024/01/03 09:48:31;;;;;;;25.83;19.15;;;;;;;;;;5006980;28;20036;-87
2024/01/03 09:50:58;;;;;;;21.70;17.08;;;;;;;;;;5008966;28;20108;-84
2024/01/03 09:53:24;;;;;;;35.17;23.92;;;;;;;;;;4989635;28;20030;-86
2024/01/03 09:55:49;;;;;;;15.05;10.75;;;;;;;;;;5015251;28;20120;-87
2024/01/03 09:58:15;;;;;;;18.55;14.02;;;;;;;;;;4992259;28;20083;-86
2024/01/03 10:00:41;;;;;;;16.80;12.02;;;;;;;;;;5004970;28;20103;-85
2024/01/03 10:03:07;;;;;;;20.65;12.60;;;;;;;;;;5020211;28;20009;-85
2024/01/03 10:05:33;;;;;;;21.02;13.05;;;;;;;;;;5004353;28;20029;-85
2024/01/03 10:07:58;;;;;;;14.15;8.32;;;;;;;;;;5001410;28;20557;-87
2024/01/03 10:10:34;;;;;;;10.10;7.75;;;;;;;;;;5025088;28;20025;-86
2024/01/03 10:13:19;;;;;;;18.33;13.93;;;;;;;;;;5008271;28;20029;-86
2024/01/03 10:15:45;;;;;;;16.38;9.63;;;;;;;;;;5006678;28;20045;-86
2024/01/03 10:18:11;;;;;;;19.10;12.55;;;;;;;;;;5007501;28;20079;-86
2024/01/03 10:20:36;;;;;;;19.15;11.23;;;;;;;;;;5025142;28;20029;-87
2024/01/03 10:23:05;;;;;;;13.85;11.32;;;;;;;;;;5008855;28;20020;-86
2024/01/03 10:25:31;;;;;;;18.48;14.23;;;;;;;;;;5019171;28;20025;-87
2024/01/03 10:28:00;;;;;;;11.77;7.07;;;;;;;;;;5011126;28;20085;-85
2024/01/03 10:30:25;;;;;;;12.98;9.80;;;;;;;;;;5010413;28;20025;-86
2024/01/03 10:32:57;;;;;;;16.45;12.77;;;;;;;;;;5009221;28;20036;-86
2024/01/03 10:35:25;;;;;;;23.35;16.30;;;;;;;;;;5026904;28;20040;-87
2024/01/03 10:37:51;;;;;;;13.13;6.47;;;;;;;;;;5021216;28;20377;-86
2024/01/03 10:40:16;;;;;;;15.93;7.80;;;;;;;;;;5012273;28;20076;-86
2024/01/03 10:42:41;;;;;;;8.82;5.20;;;;;;;;;;5028609;28;20025;-86
2024/01/03 10:45:07;;;;;;;38.47;16.15;;;;;;;;;;5008825;28;20025;-87
2024/01/03 10:47:32;;;;;;;18.50;9.93;;;;;;;;;;5025034;28;20105;-86
2024/01/03 10:49:58;;;;;;;9.90;7.07;;;;;;;;;;5008254;28;20028;-86
2024/01/03 10:52:25;;;;;;;23.55;11.20;;;;;;;;;;5025560;28;20507;-86
2024/01/03 10:54:52;;;;;;;40.75;14.25;;;;;;;;;;5010076;28;20488;-86
2024/01/03 10:57:19;;;;;;;17.70;12.02;;;;;;;;;;5005155;28;20395;-85
2024/01/03 10:59:52;;;;;;;27.92;15.25;;;;;;;;;;5008038;28;20630;-86
2024/01/03 11:02:34;;;;;;;52.90;24.45;;;;;;;;;;5009998;28;20051;-85
2024/01/03 11:05:22;;;;;;;36.60;18.92;;;;;;;;;;5024817;28;20024;-85
2024/01/03 11:07:50;;;;;;;30.92;21.70;;;;;;;;;;5021600;28;20029;-86
2024/01/03 11:10:34;;;;;;;18.88;14.85;;;;;;;;;;5020829;28;20022;-86
2024/01/03 11:13:00;;;;;;;22.23;18.38;;;;;;;;;;5026074;28;20116;-86
2024/01/03 11:15:25;;;;;;;15.05;10.35;;;;;;;;;;5023000;28;20111;-85
2024/01/03 11:17:50;;;;;;;22.40;15.55;;;;;;;;;;5010545;28;20037;-85
2024/01/03 11:20:26;;;;;;;27.50;19.88;;;;;;;;;;5023059;28;20025;-88
2024/01/03 11:22:55;;;;;;;77.72;29.15;;;;;;;;;;5008252;28;20029;-88
2024/01/03 11:25:39;;;;;;;17.25;10.13;;;;;;;;;;5027265;28;20647;-88
2024/01/03 11:28:23;;;;;;;157.52;54.30;;;;;;;;;;5021036;28;20365;-85
2024/01/03 11:30:48;;;;;;;63.15;27.10;;;;;;;;;;5025063;28;20075;-85
2024/01/03 11:33:24;;;;;;;53.10;26.77;;;;;;;;;;5016165;28;20029;-86
2024/01/03 11:35:50;;;;;;;22.20;14.15;;;;;;;;;;5013003;28;20108;-89
2024/01/03 11:38:34;;;;;;;18.77;12.18;;;;;;;;;;4981228;28;20097;-86
2024/01/03 11:41:00;;;;;;;21.55;11.10;;;;;;;;;;5009672;28;20025;-85
2024/01/03 11:43:27;;;;;;;17.55;12.85;;;;;;;;;;5012913;28;20173;-85
2024/01/03 11:46:04;;;;;;;18.27;9.32;;;;;;;;;;5009997;28;20022;-85
2024/01/03 11:48:30;;;;;;;40.13;26.50;;;;;;;;;;5010759;28;20036;-85
2024/01/03 11:50:56;;;;;;;62.38;31.98;;;;;;;;;;5011347;28;20562;-85
2024/01/03 11:53:21;;;;;;;30.48;13.77;;;;;;;;;;5011803;28;20030;-86
2024/01/03 11:55:52;;;;;;;54.85;26.58;;;;;;;;;;4994499;28;20502;-86
2024/01/03 11:58:18;;;;;;;34.58;16.10;;;;;;;;;;5010700;28;20026;-86
2024/01/03 12:00:43;;;;;;;27.42;13.07;;;;;;;;;;5015889;28;20527;-86
2024/01/03 12:03:08;;;;;;;16.40;11.30;;;;;;;;;;5024035;28;20113;-86
2024/01/03 12:05:43;;;;;;;31.95;20.90;;;;;;;;;;5025190;28;20042;-88
2024/01/03 12:08:08;;;;;;;17.35;10.73;;;;;;;;;;5020292;28;20022;-86
2024/01/03 12:10:34;;;;;;;16.27;9.45;;;;;;;;;;5014999;28;20033;-86
2024/01/03 12:12:59;;;;;;;27.92;18.35;;;;;;;;;;5025749;28;20029;-86
2024/01/03 12:15:27;;;;;;;55.60;23.58;;;;;;;;;;5013480;28;20029;-86
2024/01/03 12:17:53;;;;;;;36.58;18.00;;;;;;;;;;5012118;28;20022;-86
2024/01/03 12:20:19;;;;;;;40.60;18.48;;;;;;;;;;5011563;28;20052;-87
2024/01/03 12:22:44;;;;;;;24.88;16.38;;;;;;;;;;5012851;28;20018;-87
2024/01/03 12:25:18;;;;;;;30.17;16.48;;;;;;;;;;5007755;28;20012;-87
2024/01/03 12:27:43;;;;;;;125.15;59.25;;;;;;;;;;5014898;28;20022;-86
2024/01/03 12:30:10;;;;;;;65.57;50.35;;;;;;;;;;5015237;28;20022;-87
2024/01/03 12:32:35;;;;;;;89.78;44.67;;;;;;;;;;5028848;28;20044;-85
2024/01/03 12:35:01;;;;;;;36.42;19.25;;;;;;;;;;5029965;28;20025;-86
2024/01/03 12:37:28;;;;;;;14.63;8.70;;;;;;;;;;5038858;28;20025;-87
2024/01/03 12:39:53;;;;;;;17.58;11.30;;;;;;;;;;5045137;28;20059;-87
2024/01/03 12:42:19;;;;;;;20.38;12.10;;;;;;;;;;5029611;28;20025;-86
2024/01/03 12:44:44;;;;;;;13.95;7.68;;;;;;;;;;5028069;28;20514;-86
2024/01/03 12:47:10;;;;;;;9.82;5.50;;;;;;;;;;5013446;28;20076;-87
2024/01/03 12:49:39;;;;;;;26.50;15.15;;;;;;;;;;5011752;28;20062;-86
2024/01/03 12:52:05;;;;;;;25.50;17.08;;;;;;;;;;5027608;28;20021;-86
2024/01/03 12:54:30;;;;;;;43.50;25.42;;;;;;;;;;5029271;28;20503;-86
2024/01/03 12:56:56;;;;;;;66.10;39.22;;;;;;;;;;5000384;28;20121;-86
2024/01/03 12:59:21;;;;;;;16.10;12.60;;;;;;;;;;5014929;28;20045;-86
2024/01/03 13:01:47;;;;;;;29.88;16.35;;;;;;;;;;5010749;28;20502;-87
2024/01/03 13:04:13;;;;;;;10.30;7.90;;;;;;;;;;5018113;28;20018;-87
2024/01/03 13:06:39;;;;;;;13.88;8.25;;;;;;;;;;5012633;28;20017;-87
2024/01/03 13:09:04;;;;;;;8.45;6.68;;;;;;;;;;5017482;28;20365;-87
2024/01/03 13:11:30;;;;;;;39.95;20.17;;;;;;;;;;5010409;28;20044;-88
2024/01/03 13:13:56;;;;;;;18.10;10.55;;;;;;;;;;5012411;28;20021;-86
2024/01/03 13:16:22;;;;;;;19.50;16.77;;;;;;;;;;5028287;28;20025;-87
2024/01/03 13:18:48;;;;;;;16.65;11.35;;;;;;;;;;5011081;28;20068;-86
2024/01/03 13:21:13;;;;;;;16.83;10.88;;;;;;;;;;5027140;28;20021;-87
2024/01/03 13:23:38;;;;;;;10.32;8.10;;;;;;;;;;5028088;28;20018;-87
2024/01/03 13:26:04;;;;;;;51.05;28.27;;;;;;;;;;5028335;28;20022;-86
2024/01/03 13:28:29;;;;;;;29.50;17.75;;;;;;;;;;5010033;28;20483;-86
2024/01/03 13:30:55;;;;;;;75.63;41.08;;;;;;;;;;4996943;28;20079;-87
2024/01/03 13:33:20;;;;;;;33.90;19.73;;;;;;;;;;5013761;28;20120;-87
2024/01/03 13:35:45;;;;;;;46.60;25.83;;;;;;;;;;5012337;28;20021;-86
2024/01/03 13:38:12;;;;;;;53.58;28.42;;;;;;;;;;5010801;28;20119;-85
2024/01/03 13:40:39;;;;;;;41.40;23.48;;;;;;;;;;5007343;28;20053;-87
2024/01/03 13:43:05;;;;;;;148.38;78.63;;;;;;;;;;5009836;28;20109;-86
2024/01/03 13:45:30;;;;;;;73.18;39.92;;;;;;;;;;5009390;28;20046;-86
2024/01/03 13:47:56;;;;;;;75.25;39.75;;;;;;;;;;5014732;28;20037;-86
2024/01/03 13:50:21;;;;;;;66.53;44.63;;;;;;;;;;5008276;28;20038;-85
2024/01/03 13:52:47;;;;;;;69.05;45.63;;;;;;;;;;5005372;28;20119;-86
2024/01/03 13:55:13;;;;;;;45.95;32.20;;;;;;;;;;5005657;28;20054;-87
2024/01/03 13:57:39;;;;;;;38.55;24.00;;;;;;;;;;4986417;28;20081;-87
2024/01/03 14:00:08;;;;;;;78.95;47.58;;;;;;;;;;5008732;28;20274;-87
2024/01/03 14:02:34;;;;;;;43.95;27.85;;;;;;;;;;5006951;28;20026;-87
2024/01/03 14:05:00;;;;;;;24.83;14.68;;;;;;;;;;5005259;28;20479;-87
2024/01/03 14:07:25;;;;;;;20.08;14.15;;;;;;;;;;5007755;28;20050;-86
2024/01/03 14:09:50;;;;;;;28.42;19.13;;;;;;;;;;5007579;28;20495;-87
2024/01/03 14:12:17;;;;;;;24.40;15.48;;;;;;;;;;5009776;28;20029;-87